createdAt,value
2018-08-30T00:01:29.577Z,2.23
2018-08-30T00:03:57.934Z,2.20
2018-08-30T00:06:26.281Z,2.13
2018-08-30T00:08:53.841Z,1.77
2018-08-30T00:11:21.700Z,1.60
2018-08-30T00:13:49.484Z,1.60
2018-08-30T00:16:17.779Z,1.90
2018-08-30T00:18:45.656Z,1.90
2018-08-30T00:21:14.664Z,1.43
2018-08-30T00:23:42.490Z,1.67
2018-08-30T00:26:10.452Z,1.73
2018-08-30T00:28:38.775Z,1.57
2018-08-30T00:31:06.589Z,1.80
2018-08-30T00:33:35.594Z,1.37
2018-08-30T00:36:03.219Z,1.83
2018-08-30T00:38:32.141Z,1.73
2018-08-30T00:41:00.448Z,1.40
2018-08-30T00:43:28.420Z,1.40
2018-08-30T00:45:56.075Z,2.20
2018-08-30T00:48:25.056Z,1.43
2018-08-30T00:50:54.128Z,1.70
2018-08-30T00:53:21.676Z,1.83
2018-08-30T00:55:49.215Z,1.20
2018-08-30T00:58:16.863Z,2.23
2018-08-30T01:00:44.627Z,1.70
2018-08-30T01:03:12.505Z,1.83
2018-08-30T01:05:40.390Z,1.63
2018-08-30T01:08:08.028Z,1.90
2018-08-30T01:10:35.822Z,2.07
2018-08-30T01:13:03.432Z,2.30
2018-08-30T01:15:31.160Z,2.00
2018-08-30T01:17:58.896Z,2.63
2018-08-30T01:20:29.816Z,2.00
2018-08-30T01:22:57.581Z,1.83
2018-08-30T01:25:25.224Z,2.20
2018-08-30T01:27:52.986Z,1.83
2018-08-30T01:30:20.559Z,2.37
2018-08-30T01:32:49.569Z,2.30
2018-08-30T01:35:22.446Z,2.33
2018-08-30T01:37:50.616Z,2.57
2018-08-30T01:40:18.263Z,2.50
2018-08-30T01:42:45.891Z,2.90
2018-08-30T01:45:13.572Z,3.40
2018-08-30T01:47:41.171Z,2.90
2018-08-30T01:50:08.764Z,3.10
2018-08-30T01:52:36.414Z,3.50
2018-08-30T01:55:04.072Z,3.83
2018-08-30T01:57:31.693Z,3.73
2018-08-30T01:59:59.284Z,4.50
2018-08-30T02:02:27.569Z,4.03
2018-08-30T02:04:55.208Z,4.17
2018-08-30T02:07:22.857Z,3.47
2018-08-30T02:09:51.073Z,3.30
2018-08-30T02:12:18.791Z,3.50
2018-08-30T02:14:46.440Z,3.93
2018-08-30T02:17:13.995Z,4.27
2018-08-30T02:19:41.589Z,5.10
2018-08-30T02:22:09.111Z,4.63
2018-08-30T02:24:36.847Z,5.43
2018-08-30T02:27:05.122Z,7.40
2018-08-30T02:29:32.691Z,7.10
2018-08-30T02:32:01.117Z,7.83
2018-08-30T02:34:28.808Z,8.80
2018-08-30T02:36:56.698Z,8.97
2018-08-30T02:39:24.366Z,9.40
2018-08-30T02:41:51.939Z,9.40
2018-08-30T02:44:19.761Z,10.30
2018-08-30T02:46:48.715Z,9.43
2018-08-30T02:49:16.947Z,9.00
2018-08-30T02:51:45.313Z,7.07
2018-08-30T02:54:13.492Z,9.40
2018-08-30T02:56:41.155Z,8.43
2018-08-30T02:59:09.362Z,7.53
2018-08-30T03:01:37.829Z,8.77
2018-08-30T03:04:05.632Z,9.67
2018-08-30T03:06:33.525Z,10.90
2018-08-30T03:09:02.008Z,9.80
2018-08-30T03:11:29.583Z,9.87
2018-08-30T03:13:57.844Z,9.93
2018-08-30T03:16:26.025Z,9.70
2018-08-30T03:18:54.412Z,11.20
2018-08-30T03:21:22.124Z,10.13
2018-08-30T03:23:49.810Z,13.80
2018-08-30T03:26:17.488Z,12.53
2018-08-30T03:28:45.090Z,12.83
2018-08-30T03:31:12.630Z,12.23
2018-08-30T03:33:40.277Z,12.17
2018-08-30T03:36:07.846Z,13.77
2018-08-30T03:38:35.410Z,14.80
2018-08-30T03:41:03.020Z,13.40
2018-08-30T03:43:30.640Z,13.70
2018-08-30T03:45:58.471Z,13.60
2018-08-30T03:48:26.784Z,14.57
2018-08-30T03:50:54.310Z,13.40
2018-08-30T03:53:22.668Z,14.60
2018-08-30T03:55:50.462Z,13.30
2018-08-30T03:58:18.077Z,12.90
2018-08-30T04:00:45.708Z,14.00
2018-08-30T04:03:14.426Z,14.60
2018-08-30T04:05:42.236Z,10.63
2018-08-30T04:08:10.398Z,7.20
2018-08-30T04:10:38.169Z,6.00
2018-08-30T04:13:06.037Z,4.63
2018-08-30T04:15:34.473Z,3.93
2018-08-30T04:18:02.679Z,4.77
2018-08-30T04:20:30.450Z,4.80
2018-08-30T04:22:58.064Z,5.10
2018-08-30T04:25:25.747Z,5.73
2018-08-30T04:27:53.388Z,5.50
2018-08-30T04:30:21.406Z,6.07
2018-08-30T04:32:49.681Z,6.20
2018-08-30T04:35:17.920Z,5.83
2018-08-30T04:37:45.533Z,5.80
2018-08-30T04:40:13.346Z,7.40
2018-08-30T04:42:41.170Z,6.30
2018-08-30T04:45:08.916Z,7.80
2018-08-30T04:47:36.595Z,7.60
2018-08-30T04:50:05.248Z,7.53
2018-08-30T04:52:32.914Z,9.23
2018-08-30T04:55:00.533Z,10.13
2018-08-30T04:57:28.457Z,9.87
2018-08-30T04:59:56.779Z,10.27
2018-08-30T05:02:24.404Z,10.30
2018-08-30T05:04:52.208Z,9.83
2018-08-30T05:07:20.157Z,10.10
2018-08-30T05:09:48.836Z,10.43
2018-08-30T05:12:16.470Z,9.30
2018-08-30T05:14:44.144Z,9.20
2018-08-30T05:17:11.846Z,8.50
2018-08-30T05:19:39.526Z,8.10
2018-08-30T05:22:07.827Z,7.23
2018-08-30T05:24:35.497Z,8.17
2018-08-30T05:27:03.125Z,9.13
2018-08-30T05:29:34.998Z,7.70
2018-08-30T05:32:02.929Z,8.60
2018-08-30T05:34:30.775Z,8.60
2018-08-30T05:36:59.017Z,7.30
2018-08-30T05:39:26.806Z,7.30
2018-08-30T05:41:54.737Z,7.57
2018-08-30T05:44:22.806Z,5.60
2018-08-30T05:46:50.540Z,7.07
2018-08-30T05:49:18.356Z,5.80
2018-08-30T05:51:46.873Z,5.83
2018-08-30T05:54:14.819Z,5.87
2018-08-30T05:56:43.026Z,5.03
2018-08-30T05:59:11.499Z,5.53
2018-08-30T06:01:39.194Z,5.50
2018-08-30T06:04:07.054Z,5.13
2018-08-30T06:06:34.851Z,4.57
2018-08-30T06:09:02.590Z,5.37
2018-08-30T06:11:31.009Z,6.57
2018-08-30T06:13:59.485Z,6.07
2018-08-30T06:16:27.338Z,4.87
2018-08-30T06:18:55.013Z,5.40
2018-08-30T06:21:22.670Z,5.13
2018-08-30T06:23:50.964Z,5.40
2018-08-30T06:26:18.859Z,5.17
2018-08-30T06:28:46.536Z,4.70
2018-08-30T06:31:14.704Z,6.07
2018-08-30T06:33:42.286Z,5.10
2018-08-30T06:36:09.978Z,5.47
2018-08-30T06:38:38.898Z,5.67
2018-08-30T06:41:07.269Z,5.83
2018-08-30T06:43:35.072Z,5.10
2018-08-30T06:46:02.789Z,6.80
2018-08-30T06:48:30.460Z,5.07
2018-08-30T06:50:58.157Z,5.17
2018-08-30T06:53:26.458Z,5.33
2018-08-30T06:55:54.852Z,6.17
2018-08-30T06:58:22.600Z,5.90
2018-08-30T07:00:52.120Z,6.00
2018-08-30T07:03:20.469Z,6.83
2018-08-30T07:05:48.505Z,7.00
2018-08-30T07:08:16.845Z,5.23
2018-08-30T07:10:45.902Z,6.40
2018-08-30T07:13:14.057Z,6.27
2018-08-30T07:15:42.085Z,7.23
2018-08-30T07:18:09.811Z,7.93
2018-08-30T07:20:37.987Z,7.50
2018-08-30T07:23:05.705Z,8.20
2018-08-30T07:25:36.689Z,7.63
2018-08-30T07:28:08.447Z,7.37
2018-08-30T07:30:36.641Z,8.43
2018-08-30T07:33:04.411Z,6.90
2018-08-30T07:35:32.705Z,8.23
2018-08-30T07:38:00.574Z,7.03
2018-08-30T07:40:28.257Z,6.80
2018-08-30T07:42:55.920Z,7.00
2018-08-30T07:45:23.781Z,8.10
2018-08-30T07:47:51.432Z,8.37
2018-08-30T07:50:20.125Z,9.93
2018-08-30T07:52:48.736Z,8.77
2018-08-30T07:55:16.518Z,8.50
2018-08-30T07:57:45.227Z,9.50
2018-08-30T08:00:13.114Z,7.50
2018-08-30T08:02:40.962Z,8.20
2018-08-30T08:05:08.890Z,8.17
2018-08-30T08:07:37.578Z,6.43
2018-08-30T08:10:05.502Z,9.10
2018-08-30T08:12:33.471Z,7.50
2018-08-30T08:15:01.232Z,7.70
2018-08-30T08:17:29.170Z,8.37
2018-08-30T08:19:57.253Z,7.80
2018-08-30T08:22:25.137Z,8.03
2018-08-30T08:24:54.136Z,7.97
2018-08-30T08:27:23.034Z,7.57
2018-08-30T08:29:50.753Z,7.67
2018-08-30T08:32:18.518Z,8.73
2018-08-30T08:34:46.629Z,7.53
2018-08-30T08:37:14.331Z,7.43
2018-08-30T08:39:42.009Z,8.53
2018-08-30T08:42:09.881Z,6.90
2018-08-30T08:44:37.662Z,7.70
2018-08-30T08:47:05.292Z,7.87
2018-08-30T08:49:33.205Z,8.13
2018-08-30T08:52:01.162Z,7.83
2018-08-30T08:54:33.316Z,8.37
2018-08-30T08:57:01.041Z,8.57
2018-08-30T08:59:29.113Z,7.63
2018-08-30T09:01:56.918Z,7.50
2018-08-30T09:04:27.212Z,8.30
2018-08-30T09:06:54.909Z,8.80
2018-08-30T09:09:22.544Z,8.10
2018-08-30T09:11:50.609Z,8.17
2018-08-30T09:14:19.143Z,8.57
2018-08-30T09:16:46.890Z,8.00
2018-08-30T09:19:14.551Z,9.43
2018-08-30T09:21:46.409Z,7.50
2018-08-30T09:24:14.165Z,7.70
2018-08-30T09:26:41.943Z,9.83
2018-08-30T09:29:09.855Z,9.60
2018-08-30T09:31:38.606Z,7.40
2018-08-30T09:34:08.464Z,7.53
2018-08-30T09:36:36.617Z,8.93
2018-08-30T09:39:06.502Z,8.20
2018-08-30T09:41:34.217Z,8.17
2018-08-30T09:44:01.858Z,10.23
2018-08-30T09:46:30.181Z,8.43
2018-08-30T09:48:58.121Z,9.40
2018-08-30T09:51:27.077Z,8.23
2018-08-30T09:53:54.774Z,9.70
2018-08-30T09:56:22.480Z,9.40
2018-08-30T09:58:51.155Z,10.20
2018-08-30T10:01:24.430Z,8.83
2018-08-30T10:03:52.437Z,8.27
2018-08-30T10:06:20.269Z,9.83
2018-08-30T10:08:48.712Z,9.60
2018-08-30T10:11:17.107Z,9.93
2018-08-30T10:13:49.270Z,10.27
2018-08-30T10:16:18.615Z,9.00
2018-08-30T10:18:46.463Z,9.03
2018-08-30T10:21:14.295Z,10.63
2018-08-30T10:23:42.385Z,10.50
2018-08-30T10:26:10.132Z,9.93
2018-08-30T10:28:37.931Z,10.30
2018-08-30T10:31:05.877Z,11.10
2018-08-30T10:33:34.794Z,10.03
2018-08-30T10:36:02.826Z,10.10
2018-08-30T10:38:30.776Z,9.87
2018-08-30T10:40:58.576Z,10.33
2018-08-30T10:43:26.562Z,10.20
2018-08-30T10:45:54.549Z,10.23
2018-08-30T10:48:22.585Z,12.00
2018-08-30T10:50:50.723Z,11.63
2018-08-30T10:53:19.013Z,10.77
2018-08-30T10:55:46.991Z,11.80
2018-08-30T10:58:14.743Z,11.67
2018-08-30T11:00:43.295Z,12.17
2018-08-30T11:03:11.778Z,12.93
2018-08-30T11:05:39.780Z,12.40
2018-08-30T11:08:07.783Z,11.40
2018-08-30T11:10:36.404Z,12.00
2018-08-30T11:13:04.540Z,12.20
2018-08-30T11:15:31.998Z,14.00
2018-08-30T11:18:00.100Z,12.90
2018-08-30T11:20:27.999Z,12.90
2018-08-30T11:22:56.088Z,13.17
2018-08-30T11:25:24.100Z,13.10
2018-08-30T11:27:51.906Z,12.90
2018-08-30T11:30:19.854Z,14.13
2018-08-30T11:32:47.556Z,14.50
2018-08-30T11:35:16.066Z,11.33
2018-08-30T11:37:44.129Z,11.90
2018-08-30T11:40:12.144Z,12.10
2018-08-30T11:42:40.611Z,12.50
2018-08-30T11:45:08.908Z,10.50
2018-08-30T11:47:36.770Z,13.67
2018-08-30T11:50:10.495Z,13.03
2018-08-30T11:52:39.135Z,12.43
2018-08-30T11:55:06.978Z,13.13
2018-08-30T11:57:35.575Z,11.60
2018-08-30T12:00:03.720Z,13.33
2018-08-30T12:02:33.393Z,13.07
2018-08-30T12:05:02.626Z,13.17
2018-08-30T12:07:30.644Z,13.40
2018-08-30T12:09:58.414Z,12.13
2018-08-30T12:12:27.688Z,12.57
2018-08-30T12:14:55.640Z,12.70
2018-08-30T12:17:23.451Z,10.70
2018-08-30T12:19:58.247Z,13.20
2018-08-30T12:22:26.158Z,11.50
2018-08-30T12:24:54.402Z,11.40
2018-08-30T12:27:24.364Z,10.17
2018-08-30T12:29:53.244Z,10.60
2018-08-30T12:32:27.121Z,10.10
2018-08-30T12:34:57.751Z,12.40
2018-08-30T12:37:25.903Z,12.43
2018-08-30T12:39:55.007Z,12.80
2018-08-30T12:42:22.879Z,11.63
2018-08-30T12:44:50.768Z,10.33
2018-08-30T12:47:19.920Z,13.27
2018-08-30T12:49:47.777Z,12.30
2018-08-30T12:52:15.598Z,11.00
2018-08-30T12:54:57.829Z,13.60
2018-08-30T12:57:25.550Z,12.50
2018-08-30T12:59:53.606Z,12.57
2018-08-30T13:02:21.392Z,13.00
2018-08-30T13:04:49.295Z,11.97
2018-08-30T13:07:19.141Z,12.10
2018-08-30T13:09:48.032Z,11.23
2018-08-30T13:12:16.515Z,12.83
2018-08-30T13:14:44.745Z,12.97
2018-08-30T13:17:13.386Z,11.17
2018-08-30T13:19:41.859Z,12.73
2018-08-30T13:22:10.120Z,12.57
2018-08-30T13:24:38.186Z,11.50
2018-08-30T13:27:06.890Z,13.03
2018-08-30T13:29:34.541Z,11.33
2018-08-30T13:32:02.760Z,13.87
2018-08-30T13:34:30.445Z,12.43
2018-08-30T13:37:02.182Z,12.37
2018-08-30T13:39:30.154Z,11.80
2018-08-30T13:41:57.793Z,12.13
2018-08-30T13:44:29.748Z,12.07
2018-08-30T13:46:57.762Z,10.70
2018-08-30T13:49:26.118Z,12.43
2018-08-30T13:51:54.894Z,10.43
2018-08-30T13:54:22.592Z,10.57
2018-08-30T13:56:51.800Z,11.77
2018-08-30T13:59:19.714Z,12.13
2018-08-30T14:01:47.595Z,12.03
2018-08-30T14:04:15.266Z,11.67
2018-08-30T14:06:43.086Z,13.10
2018-08-30T14:09:10.780Z,12.10
2018-08-30T14:11:39.600Z,11.27
2018-08-30T14:14:07.715Z,12.40
2018-08-30T14:16:35.188Z,13.77
2018-08-30T14:19:03.056Z,11.40
2018-08-30T14:21:30.917Z,11.47
2018-08-30T14:23:58.987Z,10.50
2018-08-30T14:26:35.306Z,10.57
2018-08-30T14:29:03.202Z,11.43
2018-08-30T14:31:31.105Z,11.20
2018-08-30T14:33:58.738Z,10.83
2018-08-30T14:36:27.073Z,12.03
2018-08-30T14:38:59.585Z,10.43
2018-08-30T14:41:27.465Z,11.03
2018-08-30T14:43:55.257Z,11.33
2018-08-30T14:46:22.990Z,10.57
2018-08-30T14:48:50.925Z,11.63
2018-08-30T14:51:19.024Z,11.10
2018-08-30T14:53:52.177Z,10.80
2018-08-30T14:56:16.100Z,11.03
2018-08-30T14:58:44.350Z,11.03
2018-08-30T15:01:12.423Z,11.33
2018-08-30T15:03:40.381Z,11.60
2018-08-30T15:06:08.328Z,10.83
2018-08-30T15:08:36.087Z,10.10
2018-08-30T15:11:04.298Z,11.03
2018-08-30T15:13:32.209Z,10.70
2018-08-30T15:16:01.792Z,12.03
2018-08-30T15:18:29.581Z,12.13
2018-08-30T15:20:57.809Z,11.53
2018-08-30T15:23:25.655Z,10.80
2018-08-30T15:25:53.410Z,11.93
2018-08-30T15:28:21.353Z,10.80
2018-08-30T15:30:49.263Z,10.70
2018-08-30T15:33:17.520Z,10.07
2018-08-30T15:35:46.001Z,9.93
2018-08-30T15:38:13.841Z,9.40
2018-08-30T15:40:41.630Z,9.43
2018-08-30T15:43:10.631Z,10.43
2018-08-30T15:45:39.416Z,10.20
2018-08-30T15:48:07.095Z,9.60
2018-08-30T15:50:35.058Z,10.40
2018-08-30T15:53:03.339Z,9.57
2018-08-30T15:55:31.365Z,10.73
2018-08-30T15:57:59.880Z,10.20
2018-08-30T16:00:32.069Z,9.87
2018-08-30T16:03:01.348Z,10.27
2018-08-30T16:05:29.251Z,9.17
2018-08-30T16:07:57.183Z,10.50
2018-08-30T16:10:24.928Z,10.03
2018-08-30T16:12:52.717Z,10.87
2018-08-30T16:15:20.627Z,9.07
2018-08-30T16:17:48.393Z,10.93
2018-08-30T16:20:16.111Z,10.00
2018-08-30T16:22:55.202Z,14.30
2018-08-30T16:25:23.096Z,11.53
2018-08-30T16:27:51.232Z,10.30
2018-08-30T16:30:19.476Z,9.70
2018-08-30T16:32:47.221Z,10.17
2018-08-30T16:35:15.448Z,10.17
2018-08-30T16:37:43.063Z,8.83
2018-08-30T16:40:11.022Z,11.03
2018-08-30T16:42:39.444Z,10.20
2018-08-30T16:45:07.166Z,23.73
2018-08-30T16:47:34.911Z,18.30
2018-08-30T16:50:05.051Z,16.23
2018-08-30T16:52:32.705Z,12.33
2018-08-30T16:55:00.500Z,10.53
2018-08-30T16:57:29.325Z,10.00
2018-08-30T16:59:57.325Z,11.00
2018-08-30T17:02:25.334Z,9.23
2018-08-30T17:04:53.077Z,9.80
2018-08-30T17:07:21.953Z,8.20
2018-08-30T17:09:49.693Z,8.83
2018-08-30T17:12:18.199Z,8.97
2018-08-30T17:14:46.122Z,9.07
2018-08-30T17:17:13.892Z,8.87
2018-08-30T17:19:43.072Z,8.47
2018-08-30T17:22:10.783Z,9.00
2018-08-30T17:24:38.724Z,9.67
2018-08-30T17:27:06.945Z,8.67
2018-08-30T17:29:35.180Z,8.90
2018-08-30T17:32:03.911Z,7.87
2018-08-30T17:34:32.020Z,8.57
2018-08-30T17:36:59.884Z,8.70
2018-08-30T17:39:29.095Z,7.90
2018-08-30T17:41:57.552Z,7.80
2018-08-30T17:44:25.924Z,8.17
2018-08-30T17:46:53.791Z,9.00
2018-08-30T17:49:22.414Z,9.47
2018-08-30T17:51:55.573Z,8.60
2018-08-30T17:54:24.853Z,10.43
2018-08-30T17:56:53.704Z,8.70
2018-08-30T17:59:22.021Z,9.00
2018-08-30T18:01:49.863Z,9.50
2018-08-30T18:04:17.736Z,10.07
2018-08-30T18:06:45.673Z,8.63
2018-08-30T18:09:13.392Z,9.63
2018-08-30T18:11:41.199Z,8.80
2018-08-30T18:14:09.142Z,8.30
2018-08-30T18:16:37.070Z,8.77
2018-08-30T18:19:04.862Z,8.50
2018-08-30T18:21:32.540Z,8.60
2018-08-30T18:24:00.299Z,8.93
2018-08-30T18:26:29.948Z,8.87
2018-08-30T18:28:57.633Z,9.17
2018-08-30T18:31:25.549Z,8.77
2018-08-30T18:33:53.322Z,9.07
2018-08-30T18:36:21.097Z,8.33
2018-08-30T18:38:48.945Z,8.70
2018-08-30T18:41:16.884Z,10.40
2018-08-30T18:43:45.490Z,8.70
2018-08-30T18:46:13.305Z,9.70
2018-08-30T18:48:40.925Z,9.47
2018-08-30T18:51:08.713Z,9.93
2018-08-30T18:53:36.840Z,9.00
2018-08-30T18:56:04.617Z,10.90
2018-08-30T18:58:32.308Z,10.60
2018-08-30T19:01:00.056Z,11.10
2018-08-30T19:03:28.164Z,10.40
2018-08-30T19:05:56.450Z,10.30
2018-08-30T19:08:24.439Z,10.40
2018-08-30T19:10:53.490Z,9.73
2018-08-30T19:13:22.019Z,9.60
2018-08-30T19:15:55.536Z,10.90
2018-08-30T19:18:29.029Z,8.70
2018-08-30T19:20:57.488Z,10.20
2018-08-30T19:23:26.495Z,9.87
2018-08-30T19:25:54.702Z,9.67
2018-08-30T19:28:22.825Z,10.40
2018-08-30T19:30:50.603Z,9.27
2018-08-30T19:33:18.571Z,11.20
2018-08-30T19:35:52.305Z,9.80
2018-08-30T19:38:21.350Z,11.80
2018-08-30T19:40:54.981Z,11.00
2018-08-30T19:43:23.022Z,10.20
2018-08-30T19:45:52.230Z,10.47
2018-08-30T19:48:20.116Z,10.70
2018-08-30T19:50:48.078Z,9.40
2018-08-30T19:53:16.282Z,9.90
2018-08-30T19:55:44.131Z,9.57
2018-08-30T19:58:12.194Z,9.40
2018-08-30T20:00:40.161Z,10.30
2018-08-30T20:03:08.583Z,11.47
2018-08-30T20:08:38.835Z,12.70
2018-08-30T20:11:06.611Z,13.03
2018-08-30T20:13:34.495Z,11.03
2018-08-30T20:16:02.242Z,9.73
2018-08-30T20:18:31.120Z,11.90
2018-08-30T20:20:58.874Z,11.17
2018-08-30T20:23:26.505Z,10.87
2018-08-30T20:25:54.240Z,10.57
2018-08-30T20:28:21.898Z,9.73
2018-08-30T20:30:49.704Z,10.10
2018-08-30T20:33:17.526Z,9.10
2018-08-30T20:35:45.231Z,8.97
2018-08-30T20:38:17.210Z,10.07
2018-08-30T20:40:45.056Z,8.53
2018-08-30T20:43:12.790Z,9.40
2018-08-30T20:45:40.834Z,9.83
2018-08-30T20:48:09.578Z,9.67
2018-08-30T20:50:38.105Z,10.20
2018-08-30T20:53:05.861Z,9.70
2018-08-30T20:55:34.099Z,10.17
2018-08-30T20:58:02.035Z,10.30
2018-08-30T21:00:29.824Z,10.20
2018-08-30T21:02:58.026Z,9.37
2018-08-30T21:05:26.679Z,9.20
2018-08-30T21:07:55.742Z,8.27
2018-08-30T21:10:24.181Z,9.70
2018-08-30T21:12:52.082Z,7.50
2018-08-30T21:18:12.993Z,6.47
2018-08-30T21:20:40.838Z,5.87
2018-08-30T21:23:08.839Z,6.13
2018-08-30T21:25:37.189Z,6.60
2018-08-30T21:28:05.439Z,7.87
2018-08-30T21:30:34.440Z,8.43
2018-08-30T21:33:02.116Z,7.53
2018-08-30T21:35:30.288Z,7.53
2018-08-30T21:37:57.976Z,6.10
2018-08-30T21:40:25.887Z,7.73
2018-08-30T21:42:53.696Z,6.67
2018-08-30T21:45:21.365Z,7.60
2018-08-30T21:47:49.032Z,5.90
2018-08-30T21:50:16.874Z,6.67
2018-08-30T21:52:44.602Z,5.70
2018-08-30T21:55:12.942Z,4.90
2018-08-30T21:57:40.570Z,3.60
2018-08-30T22:00:08.342Z,3.63
2018-08-30T22:02:36.138Z,2.53
2018-08-30T22:05:03.830Z,2.90
2018-08-30T22:07:32.576Z,2.90
2018-08-30T22:10:00.349Z,1.97
2018-08-30T22:12:28.231Z,2.50
2018-08-30T22:14:55.990Z,2.97
2018-08-30T22:17:23.956Z,2.47
2018-08-30T22:19:52.573Z,2.70
2018-08-30T22:22:20.438Z,2.30
2018-08-30T22:24:48.401Z,2.80
2018-08-30T22:27:16.176Z,2.03
2018-08-30T22:29:43.889Z,2.83
2018-08-30T22:32:12.321Z,2.83
2018-08-30T22:34:39.945Z,3.00
2018-08-30T22:37:07.604Z,3.00
2018-08-30T22:39:35.326Z,3.80
2018-08-30T22:42:02.993Z,2.23
2018-08-30T22:44:31.457Z,2.17
2018-08-30T22:46:59.271Z,2.53
2018-08-30T22:49:27.901Z,2.00
2018-08-30T22:51:55.664Z,1.40
2018-08-30T22:54:23.542Z,2.30
2018-08-30T22:56:51.499Z,1.93
2018-08-30T22:59:19.571Z,2.03
2018-08-30T23:01:47.945Z,1.50
2018-08-30T23:04:15.913Z,2.20
2018-08-30T23:06:43.597Z,1.43
2018-08-30T23:09:11.653Z,1.60
2018-08-30T23:11:39.587Z,2.00
2018-08-30T23:14:07.782Z,1.77
2018-08-30T23:16:35.661Z,1.73
2018-08-30T23:19:03.592Z,2.13
2018-08-30T23:21:31.790Z,2.03
2018-08-30T23:23:59.511Z,1.87
2018-08-30T23:26:28.021Z,1.80
2018-08-30T23:28:55.799Z,1.90
2018-08-30T23:31:23.562Z,1.63
2018-08-30T23:33:51.600Z,2.00
2018-08-30T23:36:19.559Z,1.70
2018-08-30T23:38:47.671Z,1.50
2018-08-30T23:41:15.554Z,1.77
2018-08-30T23:43:43.310Z,1.40
2018-08-30T23:46:11.010Z,1.77
2018-08-30T23:48:38.723Z,1.80
2018-08-30T23:51:06.344Z,1.70
2018-08-30T23:53:34.013Z,1.73
2018-08-30T23:56:01.606Z,2.17
2018-08-30T23:58:40.577Z,1.50
